createdAt,value
2019-01-15T00:01:25.781Z,55.60
2019-01-15T00:03:54.029Z,55.60
2019-01-15T00:06:22.279Z,55.50
2019-01-15T00:08:50.526Z,55.50
2019-01-15T00:11:18.770Z,55.50
2019-01-15T00:13:47.013Z,55.60
2019-01-15T00:16:15.249Z,55.60
2019-01-15T00:18:43.489Z,55.60
2019-01-15T00:21:11.722Z,55.50
2019-01-15T00:23:39.990Z,55.50
2019-01-15T00:26:08.234Z,55.70
2019-01-15T00:28:36.454Z,55.50
2019-01-15T00:31:04.706Z,55.60
2019-01-15T00:33:33.232Z,55.70
2019-01-15T00:36:01.471Z,55.70
2019-01-15T00:38:29.709Z,55.70
2019-01-15T00:40:57.958Z,55.70
2019-01-15T00:43:27.148Z,55.70
2019-01-15T00:45:55.609Z,55.70
2019-01-15T00:48:23.843Z,55.70
2019-01-15T00:50:52.106Z,55.70
2019-01-15T00:53:20.331Z,55.70
2019-01-15T00:55:48.576Z,55.70
2019-01-15T00:58:16.805Z,55.80
2019-01-15T01:00:45.056Z,55.80
2019-01-15T01:03:13.290Z,55.80
2019-01-15T01:05:41.534Z,55.90
2019-01-15T01:08:09.766Z,55.80
2019-01-15T01:10:38.013Z,55.90
2019-01-15T01:13:06.470Z,55.80
2019-01-15T01:15:34.790Z,55.80
2019-01-15T01:18:03.034Z,55.90
2019-01-15T01:20:32.962Z,55.90
2019-01-15T01:23:01.283Z,55.80
2019-01-15T01:25:29.514Z,55.80
2019-01-15T01:27:57.770Z,55.90
2019-01-15T01:30:26.009Z,55.90
2019-01-15T01:32:54.278Z,55.90
2019-01-15T01:35:22.703Z,55.80
2019-01-15T01:37:50.950Z,55.80
2019-01-15T01:40:19.189Z,55.80
2019-01-15T01:42:47.432Z,55.80
2019-01-15T01:45:16.315Z,55.70
2019-01-15T01:47:44.556Z,55.80
2019-01-15T01:50:13.727Z,55.80
2019-01-15T01:52:41.989Z,56.40
2019-01-15T01:55:11.957Z,55.80
2019-01-15T01:57:40.268Z,55.30
2019-01-15T02:00:12.238Z,55.80
2019-01-15T02:02:40.493Z,55.80
2019-01-15T02:05:08.730Z,55.80
2019-01-15T02:07:36.978Z,55.80
2019-01-15T02:10:08.951Z,55.80
2019-01-15T02:12:37.562Z,55.80
2019-01-15T02:15:08.822Z,55.80
2019-01-15T02:17:37.065Z,55.70
2019-01-15T02:20:08.526Z,55.80
2019-01-15T02:22:36.765Z,55.80
2019-01-15T02:25:07.575Z,55.90
2019-01-15T02:27:37.489Z,55.90
2019-01-15T02:30:09.036Z,56.00
2019-01-15T02:32:37.261Z,56.00
2019-01-15T02:35:05.798Z,55.90
2019-01-15T02:37:34.045Z,56.00
2019-01-15T02:40:02.293Z,55.90
2019-01-15T02:42:30.529Z,55.90
2019-01-15T02:44:58.773Z,55.90
2019-01-15T02:47:27.004Z,56.00
2019-01-15T02:49:55.250Z,56.00
2019-01-15T02:52:23.513Z,56.00
2019-01-15T02:54:51.777Z,56.00
2019-01-15T02:57:20.008Z,55.90
2019-01-15T02:59:48.271Z,56.00
2019-01-15T03:02:16.530Z,56.00
2019-01-15T03:04:44.798Z,56.00
2019-01-15T03:07:13.034Z,55.90
2019-01-15T03:09:41.899Z,55.90
2019-01-15T03:12:10.166Z,56.00
2019-01-15T03:14:38.408Z,55.90
2019-01-15T03:17:06.656Z,56.00
2019-01-15T03:19:34.918Z,55.90
2019-01-15T03:22:03.185Z,55.90
2019-01-15T03:24:31.445Z,55.90
2019-01-15T03:27:00.237Z,56.00
2019-01-15T03:29:28.497Z,56.00
2019-01-15T03:31:56.757Z,56.00
2019-01-15T03:34:25.017Z,55.90
2019-01-15T03:36:53.550Z,55.90
2019-01-15T03:39:21.796Z,55.90
2019-01-15T03:41:50.070Z,55.90
2019-01-15T03:44:18.310Z,56.00
2019-01-15T03:46:46.564Z,55.90
2019-01-15T03:49:14.842Z,55.90
2019-01-15T03:51:43.066Z,55.90
2019-01-15T03:54:11.338Z,55.90
2019-01-15T03:56:39.585Z,55.90
2019-01-15T03:59:07.845Z,55.90
2019-01-15T04:01:36.080Z,55.90
2019-01-15T04:04:04.306Z,55.90
2019-01-15T04:06:32.581Z,56.00
2019-01-15T04:09:00.818Z,55.90
2019-01-15T04:11:29.098Z,56.00
2019-01-15T04:13:57.904Z,56.00
2019-01-15T04:16:26.159Z,56.00
2019-01-15T04:18:54.433Z,56.00
2019-01-15T04:21:22.681Z,56.00
2019-01-15T04:23:51.498Z,56.10
2019-01-15T04:26:19.749Z,56.10
2019-01-15T04:28:48.000Z,56.10
2019-01-15T04:31:16.266Z,56.00
2019-01-15T04:33:44.498Z,56.10
2019-01-15T04:36:12.756Z,56.00
2019-01-15T04:38:40.982Z,55.90
2019-01-15T04:41:09.242Z,56.00
2019-01-15T04:43:37.492Z,56.00
2019-01-15T04:46:05.731Z,56.00
2019-01-15T04:48:34.529Z,56.00
2019-01-15T04:51:02.809Z,56.00
2019-01-15T04:53:31.083Z,56.10
2019-01-15T04:55:59.390Z,56.70
2019-01-15T04:58:27.641Z,55.90
2019-01-15T05:00:55.894Z,55.90
2019-01-15T05:03:24.149Z,55.90
2019-01-15T05:05:52.409Z,55.90
2019-01-15T05:08:20.642Z,55.80
2019-01-15T05:10:48.893Z,55.90
2019-01-15T05:13:17.153Z,55.90
2019-01-15T05:15:45.902Z,55.90
2019-01-15T05:18:14.149Z,55.90
2019-01-15T05:20:42.395Z,55.90
2019-01-15T05:23:10.636Z,47.30
2019-01-15T05:25:38.891Z,53.00
2019-01-15T05:28:07.126Z,44.80
2019-01-15T05:30:35.395Z,40.10
2019-01-15T05:33:03.632Z,38.40
2019-01-15T05:35:31.863Z,35.40
2019-01-15T05:38:00.115Z,35.40
2019-01-15T05:40:28.356Z,35.20
2019-01-15T05:42:57.266Z,37.60
2019-01-15T05:45:27.141Z,42.10
2019-01-15T05:47:56.473Z,43.70
2019-01-15T05:50:32.388Z,42.70
2019-01-15T05:53:00.630Z,42.60
2019-01-15T05:55:28.874Z,42.60
2019-01-15T05:57:57.933Z,42.70
2019-01-15T06:00:26.165Z,42.60
2019-01-15T06:02:54.429Z,42.70
2019-01-15T06:05:22.663Z,43.00
2019-01-15T06:07:50.902Z,43.40
2019-01-15T06:10:19.157Z,43.90
2019-01-15T06:12:47.397Z,44.50
2019-01-15T06:15:16.777Z,44.60
2019-01-15T06:17:45.022Z,44.80
2019-01-15T06:20:17.823Z,45.00
2019-01-15T06:22:46.117Z,45.30
2019-01-15T06:25:14.361Z,45.60
2019-01-15T06:27:42.616Z,45.80
2019-01-15T06:30:13.496Z,46.10
2019-01-15T06:32:41.765Z,46.50
2019-01-15T06:35:10.002Z,46.60
2019-01-15T06:37:38.251Z,46.80
2019-01-15T06:40:12.174Z,47.00
2019-01-15T06:42:40.433Z,47.20
2019-01-15T06:45:14.762Z,47.20
2019-01-15T06:47:43.079Z,47.40
2019-01-15T06:50:13.154Z,47.70
2019-01-15T06:52:41.394Z,48.00
2019-01-15T06:55:14.766Z,48.10
2019-01-15T06:57:43.034Z,48.30
2019-01-15T07:00:19.380Z,48.50
2019-01-15T07:02:47.783Z,48.70
2019-01-15T07:05:16.383Z,48.80
2019-01-15T07:07:45.865Z,48.90
2019-01-15T07:10:22.944Z,49.00
2019-01-15T07:12:51.188Z,49.10
2019-01-15T07:15:19.441Z,49.10
2019-01-15T07:17:47.709Z,49.30
2019-01-15T07:20:16.638Z,49.30
2019-01-15T07:22:45.157Z,49.50
2019-01-15T07:25:25.797Z,49.60
2019-01-15T07:27:54.033Z,49.60
2019-01-15T07:30:34.306Z,49.70
2019-01-15T07:33:02.557Z,49.70
2019-01-15T07:35:30.809Z,49.80
2019-01-15T07:37:59.057Z,49.90
2019-01-15T07:40:28.238Z,50.00
2019-01-15T07:42:56.612Z,50.00
2019-01-15T07:45:24.854Z,50.10
2019-01-15T07:47:53.100Z,50.10
2019-01-15T07:50:21.907Z,50.10
2019-01-15T07:52:50.175Z,50.20
2019-01-15T07:55:20.041Z,50.20
2019-01-15T07:57:49.114Z,50.20
2019-01-15T08:00:23.181Z,50.30
2019-01-15T08:02:53.067Z,50.40
2019-01-15T08:05:24.009Z,50.40
2019-01-15T08:07:52.253Z,50.40
2019-01-15T08:10:20.483Z,50.50
2019-01-15T08:12:48.737Z,50.50
2019-01-15T08:15:25.406Z,50.60
2019-01-15T08:17:53.638Z,50.60
2019-01-15T08:20:22.186Z,50.60
2019-01-15T08:22:50.421Z,50.60
2019-01-15T08:25:18.675Z,50.70
2019-01-15T08:27:46.932Z,50.60
2019-01-15T08:30:29.408Z,50.70
2019-01-15T08:32:57.644Z,50.70
2019-01-15T08:35:25.913Z,50.80
2019-01-15T08:37:54.713Z,50.70
2019-01-15T08:40:22.981Z,50.80
2019-01-15T08:42:51.686Z,50.80
2019-01-15T08:45:19.931Z,50.80
2019-01-15T08:47:52.539Z,50.80
2019-01-15T08:50:31.050Z,50.90
2019-01-15T08:52:59.328Z,50.90
2019-01-15T08:55:28.226Z,50.90
2019-01-15T08:57:56.458Z,50.90
2019-01-15T09:00:24.697Z,51.10
2019-01-15T09:02:52.954Z,51.00
2019-01-15T09:05:21.448Z,51.00
2019-01-15T09:07:49.684Z,51.10
2019-01-15T09:10:18.665Z,51.10
2019-01-15T09:12:47.565Z,51.00
2019-01-15T09:15:20.537Z,51.00
2019-01-15T09:17:48.856Z,51.10
2019-01-15T09:20:18.859Z,51.10
2019-01-15T09:22:47.197Z,51.10
2019-01-15T09:25:15.435Z,51.20
2019-01-15T09:27:43.689Z,51.10
2019-01-15T09:30:14.910Z,51.10
2019-01-15T09:32:43.150Z,51.10
2019-01-15T09:35:11.995Z,51.10
2019-01-15T09:37:41.363Z,51.10
2019-01-15T09:40:21.528Z,51.20
2019-01-15T09:42:49.762Z,51.20
2019-01-15T09:45:20.049Z,51.20
2019-01-15T09:47:55.700Z,51.30
2019-01-15T09:50:23.941Z,51.30
2019-01-15T09:52:52.186Z,51.40
2019-01-15T09:55:21.027Z,51.30
2019-01-15T09:57:49.825Z,51.40
2019-01-15T10:00:19.229Z,51.40
2019-01-15T10:02:47.514Z,51.50
2019-01-15T10:05:15.825Z,51.50
2019-01-15T10:07:44.135Z,51.40
2019-01-15T10:10:14.477Z,51.40
2019-01-15T10:12:42.715Z,51.50
2019-01-15T10:15:13.726Z,51.60
2019-01-15T10:17:41.954Z,51.50
2019-01-15T10:20:12.141Z,51.50
2019-01-15T10:22:40.373Z,51.50
2019-01-15T10:25:11.022Z,51.50
2019-01-15T10:27:39.277Z,51.50
2019-01-15T10:30:14.152Z,51.40
2019-01-15T10:32:51.545Z,51.60
2019-01-15T10:35:23.046Z,51.60
2019-01-15T10:37:51.282Z,51.50
2019-01-15T10:40:19.538Z,51.60
2019-01-15T10:42:47.827Z,51.60
2019-01-15T10:45:16.107Z,51.60
2019-01-15T10:47:44.369Z,51.60
2019-01-15T10:50:13.249Z,51.60
2019-01-15T10:52:41.495Z,51.60
2019-01-15T10:55:09.733Z,51.60
2019-01-15T10:57:37.965Z,51.60
2019-01-15T11:00:09.699Z,51.60
2019-01-15T11:02:37.941Z,51.60
2019-01-15T11:05:08.333Z,51.60
2019-01-15T11:07:36.610Z,51.70
2019-01-15T11:10:10.720Z,51.60
2019-01-15T11:12:38.995Z,51.70
2019-01-15T11:15:08.858Z,51.70
2019-01-15T11:17:37.346Z,51.70
2019-01-15T11:20:08.919Z,51.80
2019-01-15T11:22:37.182Z,51.80
2019-01-15T11:25:07.170Z,51.80
2019-01-15T11:27:35.417Z,51.80
2019-01-15T11:30:06.253Z,51.80
2019-01-15T11:32:34.525Z,51.80
2019-01-15T11:35:02.754Z,51.80
2019-01-15T11:37:31.021Z,51.80
2019-01-15T11:39:59.253Z,51.90
2019-01-15T11:42:27.493Z,51.90
2019-01-15T11:45:03.188Z,51.80
2019-01-15T11:47:26.353Z,51.80
2019-01-15T11:49:54.618Z,51.80
2019-01-15T11:52:22.850Z,51.80
2019-01-15T11:54:51.089Z,51.80
2019-01-15T11:57:19.325Z,51.70
2019-01-15T11:59:47.605Z,51.80
2019-01-15T12:02:22.162Z,51.80
2019-01-15T12:05:01.578Z,51.90
2019-01-15T12:07:34.137Z,52.00
2019-01-15T12:10:20.693Z,52.00
2019-01-15T12:13:07.174Z,52.00
2019-01-15T12:15:37.045Z,52.00
2019-01-15T12:18:22.186Z,52.00
2019-01-15T12:20:52.061Z,52.00
2019-01-15T12:23:40.376Z,52.10
2019-01-15T12:26:12.746Z,52.10
2019-01-15T12:28:42.662Z,52.10
2019-01-15T12:31:15.178Z,52.10
2019-01-15T12:33:48.033Z,52.10
2019-01-15T12:36:24.052Z,52.20
2019-01-15T12:39:10.202Z,52.10
2019-01-15T12:41:43.520Z,52.10
2019-01-15T12:44:16.068Z,52.10
2019-01-15T12:46:48.651Z,52.10
2019-01-15T12:49:18.583Z,52.10
2019-01-15T12:52:00.779Z,52.20
2019-01-15T12:54:48.980Z,52.10
2019-01-15T12:57:27.709Z,52.10
2019-01-15T13:00:07.109Z,52.60
2019-01-15T13:02:52.316Z,53.30
2019-01-15T13:05:28.157Z,57.20
2019-01-15T13:08:15.015Z,54.80
2019-01-15T13:11:03.105Z,54.00
2019-01-15T13:13:44.781Z,53.80
2019-01-15T13:16:17.305Z,53.40
2019-01-15T13:18:47.750Z,52.20
2019-01-15T13:21:26.772Z,52.10
2019-01-15T13:24:08.470Z,52.50
2019-01-15T13:26:41.395Z,53.90
2019-01-15T13:29:26.673Z,53.00
2019-01-15T13:32:02.673Z,53.00
2019-01-15T13:34:49.942Z,52.90
2019-01-15T13:37:25.546Z,52.90
2019-01-15T13:40:01.086Z,53.00
2019-01-15T13:42:47.422Z,53.30
2019-01-15T13:45:17.297Z,53.40
2019-01-15T13:48:03.710Z,53.50
2019-01-15T13:50:33.664Z,53.50
2019-01-15T13:53:12.426Z,53.40
2019-01-15T13:55:45.253Z,53.60
2019-01-15T13:58:24.382Z,54.30
2019-01-15T14:00:57.022Z,53.80
2019-01-15T14:03:32.912Z,53.80
2019-01-15T14:06:19.462Z,53.70
2019-01-15T14:08:58.317Z,53.70
2019-01-15T14:11:40.265Z,53.70
2019-01-15T14:14:10.134Z,53.50
2019-01-15T14:16:40.013Z,53.60
2019-01-15T14:19:12.622Z,53.50
2019-01-15T14:21:46.199Z,53.60
2019-01-15T14:24:25.342Z,53.70
2019-01-15T14:26:55.225Z,54.20
2019-01-15T14:29:40.365Z,53.90
2019-01-15T14:32:13.509Z,54.40
2019-01-15T14:34:52.910Z,53.50
2019-01-15T14:37:25.517Z,53.40
2019-01-15T14:40:01.650Z,53.60
2019-01-15T14:42:48.237Z,53.50
2019-01-15T14:45:20.506Z,53.40
2019-01-15T14:47:59.475Z,53.40
2019-01-15T14:50:29.373Z,53.40
2019-01-15T14:53:02.222Z,53.40
2019-01-15T14:55:48.618Z,54.10
2019-01-15T14:58:21.327Z,53.40
2019-01-15T15:01:07.734Z,53.50
2019-01-15T15:03:40.733Z,53.20
2019-01-15T15:06:16.566Z,53.50
2019-01-15T15:08:49.413Z,53.50
2019-01-15T15:11:19.283Z,53.50
2019-01-15T15:13:54.917Z,53.50
2019-01-15T15:16:27.782Z,53.40
2019-01-15T15:19:09.903Z,53.40
2019-01-15T15:21:43.162Z,53.30
2019-01-15T15:24:18.829Z,54.00
2019-01-15T15:26:51.510Z,53.20
2019-01-15T15:29:39.542Z,53.60
2019-01-15T15:32:15.423Z,53.40
2019-01-15T15:35:01.809Z,53.10
2019-01-15T15:37:50.050Z,53.10
2019-01-15T15:40:19.960Z,53.20
2019-01-15T15:42:49.821Z,53.20
2019-01-15T15:45:37.760Z,53.10
2019-01-15T15:48:07.633Z,53.00
2019-01-15T15:50:40.296Z,53.00
2019-01-15T15:53:25.146Z,53.10
2019-01-15T15:56:11.317Z,53.60
2019-01-15T15:58:41.186Z,52.70
2019-01-15T16:01:17.086Z,52.60
2019-01-15T16:03:47.622Z,52.60
2019-01-15T16:06:23.590Z,52.60
2019-01-15T16:09:02.742Z,52.60
2019-01-15T16:11:44.965Z,52.60
2019-01-15T16:14:21.393Z,52.60
2019-01-15T16:17:09.677Z,52.60
2019-01-15T16:19:39.541Z,52.60
2019-01-15T16:22:25.738Z,52.70
2019-01-15T16:25:04.633Z,52.70
2019-01-15T16:27:34.537Z,52.70
2019-01-15T16:30:13.650Z,52.60
2019-01-15T16:32:46.323Z,52.60
2019-01-15T16:35:19.403Z,52.70
2019-01-15T16:37:49.357Z,52.80
2019-01-15T16:40:22.365Z,52.80
2019-01-15T16:42:52.245Z,52.80
2019-01-15T16:45:37.449Z,52.80
2019-01-15T16:48:13.062Z,52.70
2019-01-15T16:50:55.037Z,52.70
2019-01-15T16:53:24.934Z,52.70
2019-01-15T16:55:54.806Z,52.70
2019-01-15T16:58:36.692Z,52.70
2019-01-15T17:01:21.779Z,52.70
2019-01-15T17:04:00.904Z,52.60
2019-01-15T17:06:37.014Z,52.60
2019-01-15T17:09:12.029Z,52.60
2019-01-15T17:11:41.910Z,52.70
2019-01-15T17:14:11.798Z,53.30
2019-01-15T17:16:50.603Z,52.70
2019-01-15T17:19:26.483Z,52.70
2019-01-15T17:22:02.117Z,52.60
2019-01-15T17:24:37.795Z,52.70
2019-01-15T17:27:22.944Z,52.60
2019-01-15T17:30:08.014Z,52.70
2019-01-15T17:32:54.125Z,52.60
2019-01-15T17:35:40.658Z,52.60
2019-01-15T17:38:10.530Z,52.60
2019-01-15T17:40:55.478Z,52.40
2019-01-15T17:43:31.110Z,52.60
2019-01-15T17:46:04.586Z,52.70
2019-01-15T17:48:37.961Z,52.70
2019-01-15T17:51:07.847Z,52.70
2019-01-15T17:53:43.725Z,52.70
2019-01-15T17:56:19.477Z,52.70
2019-01-15T17:58:52.333Z,52.70
2019-01-15T18:01:34.234Z,52.70
2019-01-15T18:04:10.312Z,52.70
2019-01-15T18:06:49.265Z,52.70
2019-01-15T18:09:22.118Z,52.80
2019-01-15T18:12:08.633Z,52.80
2019-01-15T18:14:41.402Z,52.70
2019-01-15T18:17:13.976Z,52.80
2019-01-15T18:20:00.252Z,52.70
2019-01-15T18:22:33.137Z,52.80
2019-01-15T18:25:05.917Z,52.80
2019-01-15T18:27:53.838Z,52.80
2019-01-15T18:30:29.566Z,52.80
2019-01-15T18:33:05.585Z,52.80
2019-01-15T18:35:47.449Z,52.80
2019-01-15T18:38:17.330Z,52.80
2019-01-15T18:40:50.334Z,52.70
2019-01-15T18:43:35.508Z,52.80
2019-01-15T18:46:11.345Z,52.70
2019-01-15T18:48:44.226Z,55.00
2019-01-15T18:51:31.032Z,54.50
2019-01-15T18:54:10.379Z,54.30
2019-01-15T18:56:40.249Z,53.60
2019-01-15T18:59:10.135Z,53.70
2019-01-15T19:01:40.019Z,53.40
2019-01-15T19:04:12.841Z,53.30
2019-01-15T19:06:48.417Z,53.40
2019-01-15T19:09:18.974Z,54.40
2019-01-15T19:11:49.524Z,53.80
2019-01-15T19:14:19.406Z,53.60
2019-01-15T19:17:07.360Z,53.50
2019-01-15T19:19:53.600Z,53.40
2019-01-15T19:22:23.470Z,53.50
2019-01-15T19:25:05.317Z,53.40
2019-01-15T19:27:50.197Z,53.50
2019-01-15T19:30:23.007Z,53.50
2019-01-15T19:32:52.873Z,53.50
2019-01-15T19:35:38.946Z,53.50
2019-01-15T19:38:11.705Z,53.50
2019-01-15T19:40:50.635Z,53.50
2019-01-15T19:43:32.364Z,53.50
2019-01-15T19:46:05.272Z,53.50
2019-01-15T19:48:51.434Z,54.10
2019-01-15T19:51:24.269Z,53.50
2019-01-15T19:54:10.441Z,53.50
2019-01-15T19:56:46.289Z,53.50
2019-01-15T19:59:16.169Z,53.40
2019-01-15T20:01:58.096Z,53.50
2019-01-15T20:04:43.275Z,53.40
2019-01-15T20:07:29.261Z,53.40
2019-01-15T20:10:11.157Z,53.40
2019-01-15T20:12:53.086Z,53.30
2019-01-15T20:15:26.550Z,53.30
2019-01-15T20:18:14.720Z,53.30
2019-01-15T20:20:47.394Z,53.30
2019-01-15T20:23:17.267Z,53.30
2019-01-15T20:25:49.905Z,53.30
2019-01-15T20:28:25.982Z,53.40
2019-01-15T20:31:08.253Z,53.30
2019-01-15T20:33:38.828Z,53.30
2019-01-15T20:36:23.817Z,53.30
2019-01-15T20:38:57.045Z,53.30
2019-01-15T20:41:29.873Z,53.30
2019-01-15T20:43:59.748Z,53.40
2019-01-15T20:46:35.455Z,53.50
2019-01-15T20:49:05.329Z,53.40
2019-01-15T20:51:38.170Z,53.50
2019-01-15T20:54:10.866Z,53.50
2019-01-15T20:56:46.623Z,54.20
2019-01-15T20:59:34.850Z,53.50
2019-01-15T21:02:04.741Z,53.50
2019-01-15T21:04:37.301Z,53.60
2019-01-15T21:07:19.186Z,53.60
2019-01-15T21:09:49.062Z,53.70
2019-01-15T21:12:27.943Z,53.80
2019-01-15T21:14:57.819Z,53.70
2019-01-15T21:17:33.047Z,53.70
2019-01-15T21:20:04.658Z,53.80
2019-01-15T21:22:40.256Z,53.90
2019-01-15T21:25:18.910Z,53.80
2019-01-15T21:27:58.146Z,53.80
2019-01-15T21:30:30.925Z,53.80
2019-01-15T21:33:01.477Z,53.80
2019-01-15T21:35:47.857Z,53.80
2019-01-15T21:38:26.698Z,53.80
2019-01-15T21:40:56.571Z,53.80
2019-01-15T21:43:29.154Z,53.80
2019-01-15T21:45:59.025Z,53.80
2019-01-15T21:48:43.938Z,53.70
2019-01-15T21:51:19.847Z,53.70
2019-01-15T21:53:53.347Z,54.30
2019-01-15T21:56:39.585Z,53.70
2019-01-15T21:59:25.885Z,53.70
2019-01-15T22:01:55.769Z,53.60
2019-01-15T22:04:34.918Z,53.70
2019-01-15T22:07:07.514Z,53.60
2019-01-15T22:09:54.099Z,53.60
2019-01-15T22:12:33.175Z,53.60
2019-01-15T22:15:03.053Z,53.70
2019-01-15T22:17:35.630Z,53.70
2019-01-15T22:20:25.129Z,53.70
2019-01-15T22:23:04.334Z,53.70
2019-01-15T22:25:50.437Z,53.80
2019-01-15T22:28:26.537Z,53.80
2019-01-15T22:30:59.130Z,53.90
2019-01-15T22:33:41.029Z,53.90
2019-01-15T22:36:10.917Z,53.90
2019-01-15T22:38:46.529Z,53.90
2019-01-15T22:41:22.395Z,53.90
2019-01-15T22:43:54.966Z,53.90
2019-01-15T22:46:41.194Z,53.90
2019-01-15T22:49:14.117Z,54.00
2019-01-15T22:51:46.893Z,54.00
2019-01-15T22:54:22.765Z,54.00
2019-01-15T22:56:52.650Z,54.00
2019-01-15T22:59:28.453Z,54.00
2019-01-15T23:02:07.312Z,54.00
2019-01-15T23:04:37.182Z,54.00
2019-01-15T23:07:07.839Z,54.00
2019-01-15T23:09:40.621Z,54.00
2019-01-15T23:12:10.537Z,54.00
2019-01-15T23:14:40.413Z,54.00
2019-01-15T23:17:22.253Z,54.00
2019-01-15T23:20:08.622Z,54.00
2019-01-15T23:22:43.959Z,54.00
2019-01-15T23:25:29.767Z,54.70
2019-01-15T23:28:16.458Z,54.70
2019-01-15T23:31:01.641Z,54.10
2019-01-15T23:33:40.570Z,54.20
2019-01-15T23:36:26.633Z,54.20
2019-01-15T23:39:08.853Z,54.20
2019-01-15T23:41:41.441Z,54.20
2019-01-15T23:44:17.182Z,54.20
2019-01-15T23:46:47.061Z,54.30
2019-01-15T23:49:19.650Z,54.30
2019-01-15T23:51:52.192Z,54.20
2019-01-15T23:54:22.084Z,54.30
2019-01-15T23:56:54.681Z,54.40
2019-01-15T23:59:36.787Z,54.30
